createdAt,value
2018-05-04T00:00:18.667Z,15.10
2018-05-04T00:02:47.652Z,14.73
2018-05-04T00:05:16.630Z,15.30
2018-05-04T00:07:46.029Z,16.37
2018-05-04T00:10:15.002Z,16.27
2018-05-04T00:12:43.974Z,16.67
2018-05-04T00:15:12.952Z,18.17
2018-05-04T00:17:41.951Z,18.87
2018-05-04T00:20:10.924Z,19.93
2018-05-04T00:22:39.894Z,19.17
2018-05-04T00:25:08.876Z,19.37
2018-05-04T00:27:37.868Z,17.40
2018-05-04T00:30:06.866Z,18.70
2018-05-04T00:32:35.822Z,17.70
2018-05-04T00:35:04.842Z,17.63
2018-05-04T00:37:33.807Z,16.97
2018-05-04T00:40:03.811Z,18.47
2018-05-04T00:42:32.780Z,17.20
2018-05-04T00:45:01.749Z,17.00
2018-05-04T00:47:30.727Z,18.23
2018-05-04T00:49:59.699Z,17.83
2018-05-04T00:52:28.700Z,17.53
2018-05-04T00:54:57.671Z,19.47
2018-05-04T00:57:26.655Z,19.23
2018-05-04T00:59:55.620Z,18.53
2018-05-04T01:02:24.585Z,18.97
2018-05-04T01:04:53.557Z,19.77
2018-05-04T01:07:22.562Z,19.87
2018-05-04T01:09:51.591Z,18.80
2018-05-04T01:12:20.563Z,19.53
2018-05-04T01:14:49.542Z,18.80
2018-05-04T01:17:18.536Z,19.17
2018-05-04T01:19:47.495Z,17.30
2018-05-04T01:22:16.463Z,18.63
2018-05-04T01:24:45.451Z,19.23
2018-05-04T01:27:14.478Z,17.87
2018-05-04T01:29:43.459Z,19.03
2018-05-04T01:32:12.449Z,17.00
2018-05-04T01:34:41.411Z,18.50
2018-05-04T01:37:10.470Z,17.17
2018-05-04T01:39:39.443Z,19.07
2018-05-04T01:42:08.424Z,18.67
2018-05-04T01:44:37.442Z,17.27
2018-05-04T01:47:06.407Z,17.33
2018-05-04T01:49:35.371Z,17.57
2018-05-04T01:52:04.343Z,17.90
2018-05-04T01:54:33.321Z,18.40
2018-05-04T01:57:02.280Z,17.67
2018-05-04T01:59:31.254Z,18.07
2018-05-04T02:02:00.310Z,17.53
2018-05-04T02:04:29.278Z,19.00
2018-05-04T02:06:58.238Z,17.83
2018-05-04T02:09:27.226Z,18.07
2018-05-04T02:11:56.196Z,16.50
2018-05-04T02:14:25.194Z,17.70
2018-05-04T02:16:54.159Z,17.07
2018-05-04T02:19:23.181Z,14.93
2018-05-04T02:21:52.147Z,13.67
2018-05-04T02:24:21.115Z,14.50
2018-05-04T02:26:50.099Z,14.97
2018-05-04T02:29:19.078Z,12.70
2018-05-04T02:31:48.063Z,14.27
2018-05-04T02:34:17.052Z,14.10
2018-05-04T02:36:46.050Z,13.63
2018-05-04T02:39:15.023Z,14.63
2018-05-04T02:41:43.996Z,12.60
2018-05-04T02:44:12.966Z,11.43
2018-05-04T02:46:41.935Z,10.73
2018-05-04T02:49:10.904Z,11.83
2018-05-04T02:51:39.870Z,11.17
2018-05-04T02:54:08.888Z,11.60
2018-05-04T02:56:37.866Z,10.73
2018-05-04T02:59:06.838Z,10.23
2018-05-04T03:01:35.823Z,10.53
2018-05-04T03:04:04.796Z,9.77
2018-05-04T03:06:33.774Z,9.93
2018-05-04T03:09:02.731Z,9.83
2018-05-04T03:11:31.749Z,8.97
2018-05-04T03:14:00.729Z,9.37
2018-05-04T03:16:29.715Z,8.83
2018-05-04T03:18:58.691Z,8.93
2018-05-04T03:21:28.371Z,8.77
2018-05-04T03:23:57.363Z,8.50
2018-05-04T03:26:26.342Z,8.87
2018-05-04T03:28:55.306Z,8.37
2018-05-04T03:31:24.264Z,8.43
2018-05-04T03:33:53.268Z,7.67
2018-05-04T03:36:22.232Z,7.63
2018-05-04T03:38:51.192Z,8.03
2018-05-04T03:41:20.163Z,8.70
2018-05-04T03:43:49.135Z,8.63
2018-05-04T03:46:18.089Z,8.43
2018-05-04T03:48:47.059Z,8.57
2018-05-04T03:51:16.066Z,8.27
2018-05-04T03:53:45.059Z,8.00
2018-05-04T03:56:14.032Z,7.27
2018-05-04T03:58:48.950Z,7.70
2018-05-04T04:01:23.908Z,8.03
2018-05-04T04:03:58.774Z,7.53
2018-05-04T04:06:27.739Z,8.07
2018-05-04T04:08:56.733Z,7.47
2018-05-04T04:11:25.685Z,7.20
2018-05-04T04:13:54.637Z,7.37
2018-05-04T04:16:23.585Z,7.90
2018-05-04T04:18:52.568Z,7.90
2018-05-04T04:21:21.519Z,7.03
2018-05-04T04:23:51.063Z,7.53
2018-05-04T04:26:20.036Z,7.37
2018-05-04T04:28:49.017Z,7.83
2018-05-04T04:31:18.009Z,7.57
2018-05-04T04:33:46.983Z,6.60
2018-05-04T04:36:15.951Z,7.17
2018-05-04T04:38:44.927Z,8.10
2018-05-04T04:41:13.959Z,7.03
2018-05-04T04:43:42.953Z,7.30
2018-05-04T04:46:11.902Z,7.00
2018-05-04T04:48:40.861Z,8.00
2018-05-04T04:51:09.806Z,7.13
2018-05-04T04:53:38.765Z,6.87
2018-05-04T04:56:07.728Z,7.47
2018-05-04T04:58:36.720Z,7.53
2018-05-04T05:01:05.701Z,7.63
2018-05-04T05:03:34.703Z,7.40
2018-05-04T05:06:03.652Z,7.70
2018-05-04T05:08:32.614Z,7.70
2018-05-04T05:11:01.585Z,7.93
2018-05-04T05:13:30.564Z,7.50
2018-05-04T05:15:59.581Z,8.07
2018-05-04T05:18:28.590Z,7.17
2018-05-04T05:20:57.572Z,7.70
2018-05-04T05:23:26.532Z,7.13
2018-05-04T05:25:55.505Z,7.90
2018-05-04T05:28:24.498Z,7.93
2018-05-04T05:30:53.445Z,7.67
2018-05-04T05:33:22.447Z,7.33
2018-05-04T05:35:51.423Z,6.93
2018-05-04T05:38:20.373Z,7.17
2018-05-04T05:40:49.357Z,7.03
2018-05-04T05:43:18.317Z,7.10
2018-05-04T05:45:47.280Z,6.63
2018-05-04T05:48:16.263Z,7.40
2018-05-04T05:50:45.223Z,7.97
2018-05-04T05:53:14.189Z,7.27
2018-05-04T05:55:43.187Z,7.30
2018-05-04T05:58:12.141Z,8.07
2018-05-04T06:00:41.099Z,7.63
2018-05-04T06:03:10.077Z,7.60
2018-05-04T06:05:39.062Z,7.43
2018-05-04T06:08:08.039Z,7.87
2018-05-04T06:10:37.011Z,7.53
2018-05-04T06:13:05.983Z,7.57
2018-05-04T06:15:34.955Z,8.10
2018-05-04T06:18:03.930Z,7.67
2018-05-04T06:20:32.865Z,8.40
2018-05-04T06:23:01.820Z,7.57
2018-05-04T06:25:30.841Z,8.00
2018-05-04T06:27:59.795Z,7.73
2018-05-04T06:30:28.837Z,8.67
2018-05-04T06:32:57.801Z,8.53
2018-05-04T06:35:27.018Z,8.33
2018-05-04T06:37:55.996Z,8.60
2018-05-04T06:40:24.927Z,8.47
2018-05-04T06:42:54.111Z,9.13
2018-05-04T06:45:23.085Z,10.00
2018-05-04T06:47:52.025Z,8.80
2018-05-04T06:50:20.995Z,9.97
2018-05-04T06:52:49.984Z,9.80
2018-05-04T06:55:18.942Z,10.77
2018-05-04T06:57:47.889Z,11.40
2018-05-04T07:00:16.833Z,11.20
2018-05-04T07:02:45.789Z,11.47
2018-05-04T07:05:14.744Z,12.00
2018-05-04T07:07:43.692Z,12.40
2018-05-04T07:10:12.634Z,13.67
2018-05-04T07:12:41.573Z,13.20
2018-05-04T07:15:10.631Z,13.97
2018-05-04T07:17:42.583Z,13.63
2018-05-04T07:20:12.045Z,14.60
2018-05-04T07:22:40.994Z,14.00
2018-05-04T07:25:09.938Z,14.43
2018-05-04T07:27:38.881Z,15.33
2018-05-04T07:30:07.857Z,16.20
2018-05-04T07:32:36.847Z,15.20
2018-05-04T07:35:05.801Z,15.93
2018-05-04T07:37:34.761Z,16.87
2018-05-04T07:40:03.707Z,16.47
2018-05-04T07:42:32.653Z,16.63
2018-05-04T07:45:01.759Z,17.43
2018-05-04T07:47:30.748Z,17.93
2018-05-04T07:49:59.710Z,17.57
2018-05-04T07:52:28.701Z,17.90
2018-05-04T07:54:57.651Z,17.80
2018-05-04T07:57:26.638Z,18.10
2018-05-04T07:59:55.581Z,17.20
2018-05-04T08:02:25.173Z,17.50
2018-05-04T08:04:54.130Z,18.40
2018-05-04T08:07:23.076Z,17.70
2018-05-04T08:09:52.025Z,18.00
2018-05-04T08:12:20.979Z,18.03
2018-05-04T08:14:50.010Z,18.33
2018-05-04T08:17:18.953Z,17.77
2018-05-04T08:19:48.212Z,18.70
2018-05-04T08:22:17.154Z,18.87
2018-05-04T08:24:46.144Z,17.57
2018-05-04T08:27:15.099Z,18.40
2018-05-04T08:29:44.046Z,17.63
2018-05-04T08:32:13.318Z,17.07
2018-05-04T08:34:42.269Z,17.03
2018-05-04T08:37:11.227Z,16.47
2018-05-04T08:39:40.165Z,16.33
2018-05-04T08:42:09.173Z,16.77
2018-05-04T08:44:38.320Z,16.53
2018-05-04T08:47:07.274Z,16.13
2018-05-04T08:49:36.217Z,16.37
2018-05-04T08:52:05.160Z,15.93
2018-05-04T08:54:34.110Z,16.27
2018-05-04T08:57:03.071Z,16.60
2018-05-04T08:59:32.712Z,16.30
2018-05-04T09:02:01.675Z,15.73
2018-05-04T09:04:30.638Z,15.67
2018-05-04T09:06:59.693Z,15.30
2018-05-04T09:09:28.669Z,14.70
2018-05-04T09:11:57.650Z,15.23
2018-05-04T09:14:26.590Z,14.60
2018-05-04T09:16:55.528Z,14.90
2018-05-04T09:19:24.468Z,14.77
2018-05-04T09:21:53.417Z,15.23
2018-05-04T09:24:22.445Z,14.63
2018-05-04T09:26:51.451Z,15.10
2018-05-04T09:29:20.951Z,14.57
2018-05-04T09:31:50.418Z,14.17
2018-05-04T09:34:19.358Z,14.37
2018-05-04T09:36:48.334Z,14.73
2018-05-04T09:39:17.283Z,14.17
2018-05-04T09:41:46.237Z,14.80
2018-05-04T09:44:15.252Z,14.03
2018-05-04T09:46:44.263Z,14.87
2018-05-04T09:49:13.210Z,12.57
2018-05-04T09:51:42.155Z,13.57
2018-05-04T09:54:11.129Z,13.77
2018-05-04T09:56:40.723Z,13.63
2018-05-04T09:59:10.283Z,13.07
2018-05-04T10:01:39.235Z,11.77
2018-05-04T10:04:08.254Z,11.80
2018-05-04T10:06:37.198Z,13.40
2018-05-04T10:09:06.238Z,11.90
2018-05-04T10:11:35.135Z,13.03
2018-05-04T10:14:04.142Z,12.87
2018-05-04T10:16:33.131Z,12.20
2018-05-04T10:19:02.290Z,12.37
2018-05-04T10:21:31.235Z,12.17
2018-05-04T10:24:00.173Z,12.60
2018-05-04T10:26:29.126Z,12.83
2018-05-04T10:28:58.068Z,12.33
2018-05-04T10:31:27.089Z,13.07
2018-05-04T10:33:56.047Z,13.00
2018-05-04T10:36:25.018Z,12.87
2018-05-04T10:38:54.099Z,12.57
2018-05-04T10:41:23.019Z,14.30
2018-05-04T10:43:51.967Z,11.80
2018-05-04T10:46:20.958Z,13.87
2018-05-04T10:48:49.906Z,13.90
2018-05-04T10:51:19.020Z,12.60
2018-05-04T10:53:47.969Z,13.07
2018-05-04T10:56:16.908Z,13.50
2018-05-04T10:58:45.881Z,13.30
2018-05-04T11:01:14.855Z,12.77
2018-05-04T11:03:44.535Z,12.37
2018-05-04T11:06:13.503Z,12.50
2018-05-04T11:08:42.485Z,11.60
2018-05-04T11:11:12.021Z,12.00
2018-05-04T11:13:40.966Z,11.53
2018-05-04T11:16:09.957Z,10.67
2018-05-04T11:18:39.434Z,12.17
2018-05-04T11:21:08.406Z,11.93
2018-05-04T11:23:37.364Z,10.67
2018-05-04T11:26:06.319Z,9.77
2018-05-04T11:28:35.309Z,9.60
2018-05-04T11:31:04.265Z,10.13
2018-05-04T11:33:33.212Z,10.23
2018-05-04T11:36:02.170Z,10.23
2018-05-04T11:38:31.123Z,8.90
2018-05-04T11:41:00.096Z,9.10
2018-05-04T11:43:29.047Z,8.53
2018-05-04T11:45:57.990Z,8.57
2018-05-04T11:48:26.967Z,8.67
2018-05-04T11:50:55.994Z,8.30
2018-05-04T11:53:24.982Z,8.20
2018-05-04T11:55:53.924Z,8.80
2018-05-04T11:58:22.867Z,9.57
2018-05-04T12:00:51.806Z,9.77
2018-05-04T12:03:21.261Z,8.33
2018-05-04T12:05:50.271Z,8.40
2018-05-04T12:08:19.267Z,8.23
2018-05-04T12:10:48.572Z,8.40
2018-05-04T12:13:17.563Z,9.90
2018-05-04T12:15:46.669Z,8.67
2018-05-04T12:18:15.651Z,8.63
2018-05-04T12:20:44.651Z,8.80
2018-05-04T12:23:13.680Z,8.80
2018-05-04T12:25:42.614Z,8.50
2018-05-04T12:28:11.557Z,7.57
2018-05-04T12:30:40.547Z,8.30
2018-05-04T12:33:09.570Z,7.30
2018-05-04T12:35:38.531Z,6.80
2018-05-04T12:38:08.664Z,6.40
2018-05-04T12:40:37.661Z,7.90
2018-05-04T12:43:06.608Z,8.53
2018-05-04T12:45:35.570Z,7.40
2018-05-04T12:48:04.520Z,7.97
2018-05-04T12:50:33.460Z,7.57
2018-05-04T12:53:02.519Z,7.43
2018-05-04T12:55:31.520Z,8.00
2018-05-04T12:58:00.457Z,7.43
2018-05-04T13:00:29.398Z,8.10
2018-05-04T13:02:58.349Z,7.33
2018-05-04T13:05:27.358Z,8.17
2018-05-04T13:07:56.308Z,7.67
2018-05-04T13:10:25.329Z,7.37
2018-05-04T13:12:54.280Z,8.80
2018-05-04T13:15:23.218Z,7.50
2018-05-04T13:17:52.226Z,7.57
2018-05-04T13:20:21.282Z,8.05
2018-05-04T13:22:50.235Z,7.87
2018-05-04T13:25:19.182Z,7.50
2018-05-04T13:27:48.231Z,8.00
2018-05-04T13:30:17.210Z,8.30
2018-05-04T13:32:46.158Z,8.20
2018-05-04T13:35:15.090Z,8.67
2018-05-04T13:37:44.023Z,7.63
2018-05-04T13:40:13.793Z,7.60
2018-05-04T13:42:43.272Z,7.50
2018-05-04T13:45:12.829Z,7.60
2018-05-04T13:47:41.771Z,7.57
2018-05-04T13:50:11.060Z,7.80
2018-05-04T13:52:40.021Z,8.17
2018-05-04T13:55:08.977Z,8.20
2018-05-04T13:57:38.003Z,7.40
2018-05-04T14:00:07.628Z,9.10
2018-05-04T14:02:36.573Z,7.80
2018-05-04T14:05:05.568Z,8.60
2018-05-04T14:07:34.519Z,8.93
2018-05-04T14:10:03.489Z,8.40
2018-05-04T14:12:33.168Z,9.07
2018-05-04T14:15:02.170Z,8.20
2018-05-04T14:17:31.220Z,8.73
2018-05-04T14:20:00.204Z,7.73
2018-05-04T14:22:29.149Z,8.27
2018-05-04T14:24:58.133Z,7.87
2018-05-04T14:27:27.066Z,7.87
2018-05-04T14:29:56.534Z,7.63
2018-05-04T14:32:25.503Z,7.47
2018-05-04T14:34:54.468Z,7.10
2018-05-04T14:37:23.481Z,7.07
2018-05-04T14:39:52.439Z,7.83
2018-05-04T14:42:21.385Z,8.00
2018-05-04T14:44:50.333Z,6.97
2018-05-04T14:47:19.913Z,7.50
2018-05-04T14:49:48.996Z,6.77
2018-05-04T14:52:17.933Z,7.00
2018-05-04T14:54:46.960Z,7.00
2018-05-04T14:57:16.612Z,6.30
2018-05-04T14:59:45.544Z,7.00
2018-05-04T15:02:14.516Z,6.43
2018-05-04T15:04:43.447Z,6.47
2018-05-04T15:07:12.393Z,6.40
2018-05-04T15:09:41.330Z,6.50
2018-05-04T15:12:11.195Z,6.23
2018-05-04T15:14:40.206Z,12.30
2018-05-04T15:17:09.586Z,6.30
2018-05-04T15:19:38.752Z,8.60
2018-05-04T15:22:07.714Z,5.57
2018-05-04T15:24:36.658Z,4.97
2018-05-04T15:27:05.661Z,6.10
2018-05-04T15:29:34.594Z,5.83
2018-05-04T15:32:03.558Z,4.50
2018-05-04T15:34:32.485Z,4.97
2018-05-04T15:37:02.237Z,4.60
2018-05-04T15:39:31.290Z,4.10
2018-05-04T15:42:00.231Z,4.33
2018-05-04T15:44:29.181Z,4.27
2018-05-04T15:46:58.220Z,4.10
2018-05-04T15:49:27.163Z,4.20
2018-05-04T15:52:01.878Z,4.50
2018-05-04T15:54:30.830Z,4.60
2018-05-04T15:56:59.765Z,4.33
2018-05-04T15:59:28.813Z,5.30
2018-05-04T16:01:57.799Z,4.90
2018-05-04T16:04:26.801Z,4.27
2018-05-04T16:06:55.736Z,4.57
2018-05-04T16:09:25.320Z,3.77
2018-05-04T16:11:54.266Z,4.50
2018-05-04T16:14:23.206Z,4.17
2018-05-04T16:16:52.180Z,4.10
2018-05-04T16:19:21.173Z,4.30
2018-05-04T16:21:50.177Z,4.23
2018-05-04T16:24:19.118Z,4.17
2018-05-04T16:26:48.059Z,4.30
2018-05-04T16:29:17.047Z,4.27
2018-05-04T16:31:46.072Z,4.70
2018-05-04T16:34:15.013Z,4.87
2018-05-04T16:36:43.945Z,4.60
2018-05-04T16:39:12.876Z,4.60
2018-05-04T16:41:42.000Z,4.53
2018-05-04T16:44:10.941Z,4.33
2018-05-04T16:46:45.746Z,4.10
2018-05-04T16:49:21.337Z,4.40
2018-05-04T16:51:50.431Z,5.07
2018-05-04T16:54:19.369Z,4.33
2018-05-04T16:56:48.309Z,4.63
2018-05-04T16:59:17.242Z,5.20
2018-05-04T17:01:46.182Z,5.63
2018-05-04T17:04:15.168Z,4.57
2018-05-04T17:06:44.112Z,4.50
2018-05-04T17:09:13.158Z,5.10
2018-05-04T17:11:42.065Z,5.03
2018-05-04T17:14:11.310Z,4.50
2018-05-04T17:16:40.300Z,5.00
2018-05-04T17:19:09.379Z,4.87
2018-05-04T17:21:38.962Z,4.33
2018-05-04T17:24:07.902Z,4.37
2018-05-04T17:26:36.840Z,4.37
2018-05-04T17:29:05.822Z,4.90
2018-05-04T17:31:34.812Z,4.20
2018-05-04T17:34:04.253Z,4.57
2018-05-04T17:36:33.150Z,4.80
2018-05-04T17:39:02.108Z,4.33
2018-05-04T17:41:31.091Z,4.43
2018-05-04T17:44:00.094Z,3.93
2018-05-04T17:46:29.029Z,4.77
2018-05-04T17:48:57.958Z,4.40
2018-05-04T17:51:26.972Z,3.90
2018-05-04T17:53:56.006Z,4.27
2018-05-04T17:56:25.087Z,4.23
2018-05-04T17:58:54.030Z,4.13
2018-05-04T18:01:22.974Z,4.20
2018-05-04T18:03:51.902Z,4.80
2018-05-04T18:06:20.986Z,4.87
2018-05-04T18:08:49.934Z,4.70
2018-05-04T18:11:19.284Z,4.30
2018-05-04T18:13:48.229Z,4.90
2018-05-04T18:16:17.590Z,4.80
2018-05-04T18:18:46.674Z,4.20
2018-05-04T18:21:15.879Z,5.03
2018-05-04T18:23:44.902Z,5.80
2018-05-04T18:26:14.824Z,4.63
2018-05-04T18:28:43.777Z,5.60
2018-05-04T18:31:12.752Z,5.27
2018-05-04T18:33:42.229Z,5.10
2018-05-04T18:36:11.165Z,4.40
2018-05-04T18:38:40.350Z,5.00
2018-05-04T18:41:09.293Z,5.67
2018-05-04T18:43:38.681Z,6.10
2018-05-04T18:46:08.175Z,6.67
2018-05-04T18:48:37.169Z,7.50
2018-05-04T18:51:06.264Z,7.93
2018-05-04T18:53:35.245Z,8.30
2018-05-04T18:56:04.231Z,7.33
2018-05-04T18:58:33.173Z,8.60
2018-05-04T19:01:02.112Z,9.07
2018-05-04T19:03:31.046Z,8.77
2018-05-04T19:05:59.997Z,10.80
2018-05-04T19:08:28.978Z,10.07
2018-05-04T19:10:57.913Z,10.00
2018-05-04T19:13:26.859Z,10.53
2018-05-04T19:15:57.976Z,9.77
2018-05-04T19:18:26.981Z,8.80
2018-05-04T19:20:56.139Z,8.70
2018-05-04T19:26:34.602Z,9.47
2018-05-04T19:29:03.670Z,8.40
2018-05-04T19:31:32.908Z,8.87
2018-05-04T19:34:01.884Z,9.87
2018-05-04T19:36:30.873Z,9.47
2018-05-04T19:38:59.887Z,10.93
2018-05-04T19:41:28.883Z,10.40
2018-05-04T19:43:57.846Z,9.50
2018-05-04T19:46:26.807Z,9.33
2018-05-04T19:48:55.777Z,8.93
2018-05-04T19:51:24.824Z,9.07
2018-05-04T19:53:53.835Z,8.80
2018-05-04T19:56:22.817Z,8.97
2018-05-04T19:58:51.945Z,9.00
2018-05-04T20:01:20.880Z,9.13
2018-05-04T20:03:49.892Z,10.80
2018-05-04T20:06:18.861Z,10.33
2018-05-04T20:08:47.824Z,10.00
2018-05-04T20:11:16.809Z,10.30
2018-05-04T20:13:45.767Z,10.00
2018-05-04T20:16:14.845Z,9.83
2018-05-04T20:18:43.823Z,10.10
2018-05-04T20:21:12.814Z,10.80
2018-05-04T20:23:41.792Z,9.43
2018-05-04T20:26:10.758Z,9.20
2018-05-04T20:28:39.767Z,9.10
2018-05-04T20:31:08.744Z,9.67
2018-05-04T20:33:37.724Z,8.73
2018-05-04T20:36:06.703Z,9.30
2018-05-04T20:38:35.686Z,9.10
2018-05-04T20:41:04.695Z,9.00
2018-05-04T20:43:33.685Z,9.43
2018-05-04T20:46:02.653Z,8.30
2018-05-04T20:48:31.623Z,8.93
2018-05-04T20:51:00.597Z,7.93
2018-05-04T20:53:29.586Z,7.80
2018-05-04T20:55:58.560Z,8.83
2018-05-04T20:58:27.582Z,8.40
2018-05-04T21:00:56.573Z,8.97
2018-05-04T21:03:25.560Z,8.80
2018-05-04T21:05:54.526Z,7.97
2018-05-04T21:08:23.504Z,8.53
2018-05-04T21:10:52.530Z,7.77
2018-05-04T21:13:21.504Z,8.07
2018-05-04T21:15:50.451Z,9.03
2018-05-04T21:18:19.419Z,8.63
2018-05-04T21:20:48.385Z,8.33
2018-05-04T21:23:17.391Z,9.00
2018-05-04T21:25:46.360Z,7.80
2018-05-04T21:28:15.332Z,8.83
2018-05-04T21:30:44.296Z,8.37
2018-05-04T21:33:13.249Z,7.97
2018-05-04T21:35:42.251Z,8.37
2018-05-04T21:38:11.259Z,7.60
2018-05-04T21:40:41.050Z,8.40
2018-05-04T21:43:10.020Z,8.30
2018-05-04T21:45:38.976Z,8.70
2018-05-04T21:48:07.968Z,9.53
2018-05-04T21:50:36.935Z,8.60
2018-05-04T21:53:05.890Z,9.13
2018-05-04T21:55:34.835Z,9.23
2018-05-04T21:58:03.807Z,9.27
2018-05-04T22:00:32.803Z,9.00
2018-05-04T22:03:01.804Z,9.60
2018-05-04T22:05:30.751Z,9.17
2018-05-04T22:07:59.768Z,8.57
2018-05-04T22:10:28.870Z,9.33
2018-05-04T22:12:57.875Z,9.00
2018-05-04T22:15:26.858Z,10.67
2018-05-04T22:17:55.863Z,10.27
2018-05-04T22:20:24.877Z,10.80
2018-05-04T22:22:53.841Z,11.10
2018-05-04T22:25:22.867Z,10.53
2018-05-04T22:27:51.847Z,10.47
2018-05-04T22:30:20.821Z,10.93
2018-05-04T22:32:49.779Z,10.40
2018-05-04T22:35:18.758Z,10.27
2018-05-04T22:37:47.755Z,10.80
2018-05-04T22:40:16.776Z,12.17
2018-05-04T22:42:45.767Z,10.77
2018-05-04T22:45:14.732Z,9.87
2018-05-04T22:47:43.696Z,11.07
2018-05-04T22:50:12.707Z,11.60
2018-05-04T22:52:41.708Z,11.47
2018-05-04T22:55:10.674Z,12.60
2018-05-04T22:57:39.622Z,12.60
2018-05-04T23:00:08.583Z,12.60
2018-05-04T23:02:37.593Z,12.50
2018-05-04T23:05:06.571Z,12.77
2018-05-04T23:07:35.542Z,12.30
2018-05-04T23:10:04.535Z,12.23
2018-05-04T23:12:33.524Z,13.27
2018-05-04T23:15:02.535Z,12.70
2018-05-04T23:17:31.495Z,12.70
2018-05-04T23:20:00.487Z,12.53
2018-05-04T23:22:29.493Z,12.07
2018-05-04T23:24:58.468Z,11.60
2018-05-04T23:27:27.623Z,12.70
2018-05-04T23:29:56.637Z,12.60
2018-05-04T23:32:25.613Z,13.03
2018-05-04T23:34:54.568Z,13.53
2018-05-04T23:37:23.548Z,12.97
2018-05-04T23:39:52.565Z,13.13
2018-05-04T23:42:21.536Z,13.07
2018-05-04T23:44:50.501Z,13.03
2018-05-04T23:47:20.210Z,12.23
2018-05-04T23:49:49.194Z,12.80
2018-05-04T23:52:18.220Z,12.20
2018-05-04T23:54:47.204Z,11.60
2018-05-04T23:57:16.226Z,12.63
2018-05-04T23:59:45.219Z,12.20
